sensor_id;sensor_type;location;lat;lon;timestamp;temperature;humidity
69715;HTU21D;56981;53.532;49.398;2023-08-24T00:00:20;15.40;81.06
69715;HTU21D;56981;53.532;49.398;2023-08-24T00:02:46;15.37;81.25
69715;HTU21D;56981;53.532;49.398;2023-08-24T00:05:13;15.41;81.45
69715;HTU21D;56981;53.532;49.398;2023-08-24T00:07:39;15.45;81.44
69715;HTU21D;56981;53.532;49.398;2023-08-24T00:10:06;15.44;81.20
69715;HTU21D;56981;53.532;49.398;2023-08-24T00:12:33;15.41;80.83
69715;HTU21D;56981;53.532;49.398;2023-08-24T00:14:59;15.42;81.02
69715;HTU21D;56981;53.532;49.398;2023-08-24T00:17:25;15.42;80.88
69715;HTU21D;56981;53.532;49.398;2023-08-24T00:19:51;15.39;81.20
69715;HTU21D;56981;53.532;49.398;2023-08-24T00:22:17;15.40;81.39
69715;HTU21D;56981;53.532;49.398;2023-08-24T00:24:43;15.41;81.72
69715;HTU21D;56981;53.532;49.398;2023-08-24T00:27:10;15.42;81.82
69715;HTU21D;56981;53.532;49.398;2023-08-24T00:29:36;15.41;82.16
69715;HTU21D;56981;53.532;49.398;2023-08-24T00:32:02;15.44;81.29
69715;HTU21D;56981;53.532;49.398;2023-08-24T00:34:29;15.36;81.60
69715;HTU21D;56981;53.532;49.398;2023-08-24T00:36:55;15.26;81.78
69715;HTU21D;56981;53.532;49.398;2023-08-24T00:39:21;15.26;81.94
69715;HTU21D;56981;53.532;49.398;2023-08-24T00:41:47;15.25;81.72
69715;HTU21D;56981;53.532;49.398;2023-08-24T00:44:13;15.17;82.23
69715;HTU21D;56981;53.532;49.398;2023-08-24T00:46:39;15.12;82.78
69715;HTU21D;56981;53.532;49.398;2023-08-24T00:49:05;15.09;82.74
69715;HTU21D;56981;53.532;49.398;2023-08-24T00:51:31;15.10;82.90
69715;HTU21D;56981;53.532;49.398;2023-08-24T00:53:57;15.04;82.75
69715;HTU21D;56981;53.532;49.398;2023-08-24T00:56:24;15.01;83.20
69715;HTU21D;56981;53.532;49.398;2023-08-24T00:58:51;15.02;83.16
69715;HTU21D;56981;53.532;49.398;2023-08-24T01:01:18;14.98;83.12
69715;HTU21D;56981;53.532;49.398;2023-08-24T01:03:45;15.01;83.57
69715;HTU21D;56981;53.532;49.398;2023-08-24T01:06:11;15.07;83.25
69715;HTU21D;56981;53.532;49.398;2023-08-24T01:08:37;15.04;83.24
69715;HTU21D;56981;53.532;49.398;2023-08-24T01:11:12;15.11;83.32
69715;HTU21D;56981;53.532;49.398;2023-08-24T01:16:37;15.26;82.99
69715;HTU21D;56981;53.532;49.398;2023-08-24T01:19:07;15.29;83.24
69715;HTU21D;56981;53.532;49.398;2023-08-24T01:21:36;15.32;82.74
69715;HTU21D;56981;53.532;49.398;2023-08-24T01:24:09;15.34;82.94
69715;HTU21D;56981;53.532;49.398;2023-08-24T01:26:37;15.38;82.85
69715;HTU21D;56981;53.532;49.398;2023-08-24T01:29:04;15.42;82.67
69715;HTU21D;56981;53.532;49.398;2023-08-24T01:31:31;15.41;82.44
69715;HTU21D;56981;53.532;49.398;2023-08-24T01:33:57;15.44;82.46
69715;HTU21D;56981;53.532;49.398;2023-08-24T01:36:23;15.46;82.60
69715;HTU21D;56981;53.532;49.398;2023-08-24T01:38:59;15.51;82.80
69715;HTU21D;56981;53.532;49.398;2023-08-24T01:41:35;15.58;82.88
69715;HTU21D;56981;53.532;49.398;2023-08-24T01:44:09;15.59;82.18
69715;HTU21D;56981;53.532;49.398;2023-08-24T01:46:39;15.60;82.12
69715;HTU21D;56981;53.532;49.398;2023-08-24T01:49:06;15.61;82.36
69715;HTU21D;56981;53.532;49.398;2023-08-24T01:51:34;15.68;82.24
69715;HTU21D;56981;53.532;49.398;2023-08-24T01:54:00;15.67;82.17
69715;HTU21D;56981;53.532;49.398;2023-08-24T01:56:26;15.73;81.03
69715;HTU21D;56981;53.532;49.398;2023-08-24T01:58:52;15.76;80.62
69715;HTU21D;56981;53.532;49.398;2023-08-24T02:01:18;15.85;80.23
69715;HTU21D;56981;53.532;49.398;2023-08-24T02:03:44;15.89;80.51
69715;HTU21D;56981;53.532;49.398;2023-08-24T02:06:10;15.88;80.56
69715;HTU21D;56981;53.532;49.398;2023-08-24T02:08:37;15.93;79.90
69715;HTU21D;56981;53.532;49.398;2023-08-24T02:11:03;15.98;80.28
69715;HTU21D;56981;53.532;49.398;2023-08-24T02:13:29;15.97;79.72
69715;HTU21D;56981;53.532;49.398;2023-08-24T02:16:08;16.02;79.28
69715;HTU21D;56981;53.532;49.398;2023-08-24T02:18:38;16.12;79.09
69715;HTU21D;56981;53.532;49.398;2023-08-24T02:21:08;16.12;79.18
69715;HTU21D;56981;53.532;49.398;2023-08-24T02:23:34;16.16;78.82
69715;HTU21D;56981;53.532;49.398;2023-08-24T02:26:01;16.24;78.69
69715;HTU21D;56981;53.532;49.398;2023-08-24T02:28:28;16.26;79.01
69715;HTU21D;56981;53.532;49.398;2023-08-24T02:30:54;16.26;79.21
69715;HTU21D;56981;53.532;49.398;2023-08-24T02:33:20;16.30;78.69
69715;HTU21D;56981;53.532;49.398;2023-08-24T02:35:49;16.27;78.36
69715;HTU21D;56981;53.532;49.398;2023-08-24T02:38:15;16.34;77.89
69715;HTU21D;56981;53.532;49.398;2023-08-24T02:40:41;16.35;77.73
69715;HTU21D;56981;53.532;49.398;2023-08-24T02:43:07;16.30;77.53
69715;HTU21D;56981;53.532;49.398;2023-08-24T02:45:33;16.34;76.84
69715;HTU21D;56981;53.532;49.398;2023-08-24T02:47:59;16.40;76.08
69715;HTU21D;56981;53.532;49.398;2023-08-24T02:50:25;16.48;75.84
69715;HTU21D;56981;53.532;49.398;2023-08-24T02:52:51;16.51;75.77
69715;HTU21D;56981;53.532;49.398;2023-08-24T02:55:18;16.52;75.25
69715;HTU21D;56981;53.532;49.398;2023-08-24T02:57:44;16.57;75.13
69715;HTU21D;56981;53.532;49.398;2023-08-24T03:00:10;16.64;74.70
69715;HTU21D;56981;53.532;49.398;2023-08-24T03:02:39;16.71;74.67
69715;HTU21D;56981;53.532;49.398;2023-08-24T03:05:05;16.69;74.23
69715;HTU21D;56981;53.532;49.398;2023-08-24T03:07:32;16.72;74.86
69715;HTU21D;56981;53.532;49.398;2023-08-24T03:09:58;16.69;74.54
69715;HTU21D;56981;53.532;49.398;2023-08-24T03:12:24;16.66;74.79
69715;HTU21D;56981;53.532;49.398;2023-08-24T03:14:53;16.67;74.71
69715;HTU21D;56981;53.532;49.398;2023-08-24T03:17:21;16.71;74.07
69715;HTU21D;56981;53.532;49.398;2023-08-24T03:19:47;16.67;73.77
69715;HTU21D;56981;53.532;49.398;2023-08-24T03:22:13;16.67;72.44
69715;HTU21D;56981;53.532;49.398;2023-08-24T03:24:39;16.72;72.39
69715;HTU21D;56981;53.532;49.398;2023-08-24T03:27:05;16.76;72.09
69715;HTU21D;56981;53.532;49.398;2023-08-24T03:29:32;16.72;72.51
69715;HTU21D;56981;53.532;49.398;2023-08-24T03:31:58;16.78;71.93
69715;HTU21D;56981;53.532;49.398;2023-08-24T03:34:24;16.84;71.31
69715;HTU21D;56981;53.532;49.398;2023-08-24T03:36:50;16.92;70.71
69715;HTU21D;56981;53.532;49.398;2023-08-24T03:39:16;17.00;70.36
69715;HTU21D;56981;53.532;49.398;2023-08-24T03:41:42;17.00;69.68
69715;HTU21D;56981;53.532;49.398;2023-08-24T03:44:08;17.02;69.39
69715;HTU21D;56981;53.532;49.398;2023-08-24T03:46:34;17.06;68.95
69715;HTU21D;56981;53.532;49.398;2023-08-24T03:49:01;17.04;68.64
69715;HTU21D;56981;53.532;49.398;2023-08-24T03:51:27;17.03;67.76
69715;HTU21D;56981;53.532;49.398;2023-08-24T03:53:53;17.08;67.61
69715;HTU21D;56981;53.532;49.398;2023-08-24T03:56:19;17.06;65.91
69715;HTU21D;56981;53.532;49.398;2023-08-24T03:58:45;17.01;66.59
69715;HTU21D;56981;53.532;49.398;2023-08-24T04:01:11;17.05;66.41
69715;HTU21D;56981;53.532;49.398;2023-08-24T04:03:37;17.11;66.00
69715;HTU21D;56981;53.532;49.398;2023-08-24T04:06:04;17.17;65.10
69715;HTU21D;56981;53.532;49.398;2023-08-24T04:08:30;17.21;64.79
69715;HTU21D;56981;53.532;49.398;2023-08-24T04:10:56;17.17;65.11
69715;HTU21D;56981;53.532;49.398;2023-08-24T04:13:22;17.13;65.02
69715;HTU21D;56981;53.532;49.398;2023-08-24T04:15:48;17.16;64.98
69715;HTU21D;56981;53.532;49.398;2023-08-24T04:18:14;17.14;64.18
69715;HTU21D;56981;53.532;49.398;2023-08-24T04:20:40;17.10;64.95
69715;HTU21D;56981;53.532;49.398;2023-08-24T04:23:06;17.05;66.32
69715;HTU21D;56981;53.532;49.398;2023-08-24T04:25:32;17.03;66.79
69715;HTU21D;56981;53.532;49.398;2023-08-24T04:27:58;16.94;66.53
69715;HTU21D;56981;53.532;49.398;2023-08-24T04:30:24;16.98;67.68
69715;HTU21D;56981;53.532;49.398;2023-08-24T04:32:50;16.94;67.20
69715;HTU21D;56981;53.532;49.398;2023-08-24T04:35:16;16.92;66.33
69715;HTU21D;56981;53.532;49.398;2023-08-24T04:37:42;17.04;65.68
69715;HTU21D;56981;53.532;49.398;2023-08-24T04:40:09;17.18;65.42
69715;HTU21D;56981;53.532;49.398;2023-08-24T04:42:36;17.26;65.66
69715;HTU21D;56981;53.532;49.398;2023-08-24T04:45:02;17.38;65.55
69715;HTU21D;56981;53.532;49.398;2023-08-24T04:47:28;17.39;63.90
69715;HTU21D;56981;53.532;49.398;2023-08-24T04:49:55;17.40;64.30
69715;HTU21D;56981;53.532;49.398;2023-08-24T04:52:21;17.46;63.88
69715;HTU21D;56981;53.532;49.398;2023-08-24T04:54:48;17.52;63.40
69715;HTU21D;56981;53.532;49.398;2023-08-24T04:57:14;17.55;63.65
69715;HTU21D;56981;53.532;49.398;2023-08-24T04:59:39;17.66;63.77
69715;HTU21D;56981;53.532;49.398;2023-08-24T05:02:05;17.66;63.11
69715;HTU21D;56981;53.532;49.398;2023-08-24T05:04:31;17.70;62.92
69715;HTU21D;56981;53.532;49.398;2023-08-24T05:06:58;17.67;63.37
69715;HTU21D;56981;53.532;49.398;2023-08-24T05:09:24;17.73;63.27
69715;HTU21D;56981;53.532;49.398;2023-08-24T05:11:50;17.78;63.40
69715;HTU21D;56981;53.532;49.398;2023-08-24T05:14:16;17.88;63.20
69715;HTU21D;56981;53.532;49.398;2023-08-24T05:16:42;17.96;63.00
69715;HTU21D;56981;53.532;49.398;2023-08-24T05:19:08;18.02;62.15
69715;HTU21D;56981;53.532;49.398;2023-08-24T05:21:34;17.98;61.47
69715;HTU21D;56981;53.532;49.398;2023-08-24T05:24:00;17.96;61.08
69715;HTU21D;56981;53.532;49.398;2023-08-24T05:26:27;17.92;61.42
69715;HTU21D;56981;53.532;49.398;2023-08-24T05:28:53;17.97;60.70
69715;HTU21D;56981;53.532;49.398;2023-08-24T05:31:19;17.95;61.21
69715;HTU21D;56981;53.532;49.398;2023-08-24T05:33:45;17.90;61.24
69715;HTU21D;56981;53.532;49.398;2023-08-24T05:36:11;17.91;61.20
69715;HTU21D;56981;53.532;49.398;2023-08-24T05:38:37;17.90;61.36
69715;HTU21D;56981;53.532;49.398;2023-08-24T05:41:03;17.80;62.02
69715;HTU21D;56981;53.532;49.398;2023-08-24T05:43:29;17.79;62.29
69715;HTU21D;56981;53.532;49.398;2023-08-24T05:45:56;17.80;61.18
69715;HTU21D;56981;53.532;49.398;2023-08-24T05:48:22;17.72;60.37
69715;HTU21D;56981;53.532;49.398;2023-08-24T05:50:48;17.65;61.06
69715;HTU21D;56981;53.532;49.398;2023-08-24T05:53:14;17.64;61.41
69715;HTU21D;56981;53.532;49.398;2023-08-24T05:55:40;17.61;61.37
69715;HTU21D;56981;53.532;49.398;2023-08-24T05:58:06;17.51;61.69
69715;HTU21D;56981;53.532;49.398;2023-08-24T06:00:32;17.48;62.06
69715;HTU21D;56981;53.532;49.398;2023-08-24T06:02:58;17.43;62.44
69715;HTU21D;56981;53.532;49.398;2023-08-24T06:05:24;17.34;63.04
69715;HTU21D;56981;53.532;49.398;2023-08-24T06:07:50;17.26;63.24
69715;HTU21D;56981;53.532;49.398;2023-08-24T06:10:16;17.23;63.47
69715;HTU21D;56981;53.532;49.398;2023-08-24T06:12:42;17.25;65.87
69715;HTU21D;56981;53.532;49.398;2023-08-24T06:15:08;17.19;65.56
69715;HTU21D;56981;53.532;49.398;2023-08-24T06:17:36;17.18;67.30
69715;HTU21D;56981;53.532;49.398;2023-08-24T06:20:03;17.15;67.04
69715;HTU21D;56981;53.532;49.398;2023-08-24T06:22:29;17.18;67.62
69715;HTU21D;56981;53.532;49.398;2023-08-24T06:24:55;17.18;66.73
69715;HTU21D;56981;53.532;49.398;2023-08-24T06:27:26;17.14;65.72
69715;HTU21D;56981;53.532;49.398;2023-08-24T06:29:52;17.13;67.19
69715;HTU21D;56981;53.532;49.398;2023-08-24T06:32:18;17.13;67.47
69715;HTU21D;56981;53.532;49.398;2023-08-24T06:34:44;17.15;67.95
69715;HTU21D;56981;53.532;49.398;2023-08-24T06:37:10;17.09;68.19
69715;HTU21D;56981;53.532;49.398;2023-08-24T06:39:36;17.10;69.19
69715;HTU21D;56981;53.532;49.398;2023-08-24T06:42:02;17.09;67.88
69715;HTU21D;56981;53.532;49.398;2023-08-24T06:44:28;17.04;67.91
69715;HTU21D;56981;53.532;49.398;2023-08-24T06:46:54;17.10;70.11
69715;HTU21D;56981;53.532;49.398;2023-08-24T06:49:20;17.06;68.72
69715;HTU21D;56981;53.532;49.398;2023-08-24T06:51:46;17.04;69.04
69715;HTU21D;56981;53.532;49.398;2023-08-24T06:54:12;17.03;69.39
69715;HTU21D;56981;53.532;49.398;2023-08-24T06:56:40;17.02;69.29
69715;HTU21D;56981;53.532;49.398;2023-08-24T06:59:06;16.90;68.16
69715;HTU21D;56981;53.532;49.398;2023-08-24T07:01:32;16.82;70.24
69715;HTU21D;56981;53.532;49.398;2023-08-24T07:03:58;16.84;72.09
69715;HTU21D;56981;53.532;49.398;2023-08-24T07:06:24;16.77;71.16
69715;HTU21D;56981;53.532;49.398;2023-08-24T07:08:50;16.78;71.42
69715;HTU21D;56981;53.532;49.398;2023-08-24T07:11:16;16.87;70.95
69715;HTU21D;56981;53.532;49.398;2023-08-24T07:13:43;16.87;73.13
69715;HTU21D;56981;53.532;49.398;2023-08-24T07:16:09;16.88;71.24
69715;HTU21D;56981;53.532;49.398;2023-08-24T07:18:35;16.86;70.56
69715;HTU21D;56981;53.532;49.398;2023-08-24T07:21:01;16.82;69.29
69715;HTU21D;56981;53.532;49.398;2023-08-24T07:23:27;16.82;68.95
69715;HTU21D;56981;53.532;49.398;2023-08-24T07:25:53;16.76;69.98
69715;HTU21D;56981;53.532;49.398;2023-08-24T07:28:19;16.77;69.92
69715;HTU21D;56981;53.532;49.398;2023-08-24T07:30:45;16.82;70.55
69715;HTU21D;56981;53.532;49.398;2023-08-24T07:33:11;16.89;70.21
69715;HTU21D;56981;53.532;49.398;2023-08-24T07:35:37;16.94;70.45
69715;HTU21D;56981;53.532;49.398;2023-08-24T07:38:03;16.98;70.15
69715;HTU21D;56981;53.532;49.398;2023-08-24T07:40:30;17.02;69.74
69715;HTU21D;56981;53.532;49.398;2023-08-24T07:42:56;17.03;69.87
69715;HTU21D;56981;53.532;49.398;2023-08-24T07:45:23;17.09;70.66
69715;HTU21D;56981;53.532;49.398;2023-08-24T07:47:49;17.19;69.82
69715;HTU21D;56981;53.532;49.398;2023-08-24T07:50:15;17.22;68.42
69715;HTU21D;56981;53.532;49.398;2023-08-24T07:52:41;17.40;68.75
69715;HTU21D;56981;53.532;49.398;2023-08-24T07:55:08;17.50;68.26
69715;HTU21D;56981;53.532;49.398;2023-08-24T07:57:34;17.53;66.94
69715;HTU21D;56981;53.532;49.398;2023-08-24T08:00:01;17.61;67.52
69715;HTU21D;56981;53.532;49.398;2023-08-24T08:02:28;17.79;68.13
69715;HTU21D;56981;53.532;49.398;2023-08-24T08:04:57;17.80;65.13
69715;HTU21D;56981;53.532;49.398;2023-08-24T08:07:25;17.85;67.27
69715;HTU21D;56981;53.532;49.398;2023-08-24T08:09:51;17.84;66.42
69715;HTU21D;56981;53.532;49.398;2023-08-24T08:12:17;17.77;65.72
69715;HTU21D;56981;53.532;49.398;2023-08-24T08:14:43;17.59;66.34
69715;HTU21D;56981;53.532;49.398;2023-08-24T08:17:09;17.54;67.00
69715;HTU21D;56981;53.532;49.398;2023-08-24T08:19:35;17.48;67.40
69715;HTU21D;56981;53.532;49.398;2023-08-24T08:22:04;17.38;68.17
69715;HTU21D;56981;53.532;49.398;2023-08-24T08:24:30;17.39;68.26
69715;HTU21D;56981;53.532;49.398;2023-08-24T08:26:56;17.39;67.48
69715;HTU21D;56981;53.532;49.398;2023-08-24T08:29:22;17.30;67.89
69715;HTU21D;56981;53.532;49.398;2023-08-24T08:31:48;17.19;68.47
69715;HTU21D;56981;53.532;49.398;2023-08-24T08:34:14;17.17;68.06
69715;HTU21D;56981;53.532;49.398;2023-08-24T08:36:40;17.11;68.49
69715;HTU21D;56981;53.532;49.398;2023-08-24T08:39:07;17.08;68.75
69715;HTU21D;56981;53.532;49.398;2023-08-24T08:41:39;17.07;69.51
69715;HTU21D;56981;53.532;49.398;2023-08-24T08:44:09;16.95;70.78
69715;HTU21D;56981;53.532;49.398;2023-08-24T08:46:36;16.87;71.18
69715;HTU21D;56981;53.532;49.398;2023-08-24T08:49:02;16.82;70.18
69715;HTU21D;56981;53.532;49.398;2023-08-24T08:51:29;16.86;69.96
69715;HTU21D;56981;53.532;49.398;2023-08-24T08:53:55;16.71;69.92
69715;HTU21D;56981;53.532;49.398;2023-08-24T08:56:22;16.56;71.11
69715;HTU21D;56981;53.532;49.398;2023-08-24T08:58:49;16.49;71.03
69715;HTU21D;56981;53.532;49.398;2023-08-24T09:01:16;16.42;71.46
69715;HTU21D;56981;53.532;49.398;2023-08-24T09:03:43;16.32;72.97
69715;HTU21D;56981;53.532;49.398;2023-08-24T09:06:10;16.35;72.57
69715;HTU21D;56981;53.532;49.398;2023-08-24T09:08:36;16.28;72.83
69715;HTU21D;56981;53.532;49.398;2023-08-24T09:11:04;16.22;72.89
69715;HTU21D;56981;53.532;49.398;2023-08-24T09:13:33;16.17;74.54
69715;HTU21D;56981;53.532;49.398;2023-08-24T09:16:04;16.11;74.09
69715;HTU21D;56981;53.532;49.398;2023-08-24T09:18:39;16.13;74.86
69715;HTU21D;56981;53.532;49.398;2023-08-24T09:21:24;16.22;75.69
69715;HTU21D;56981;53.532;49.398;2023-08-24T09:23:55;16.21;74.12
69715;HTU21D;56981;53.532;49.398;2023-08-24T09:28:56;16.13;74.79
69715;HTU21D;56981;53.532;49.398;2023-08-24T09:31:23;16.16;75.12
69715;HTU21D;56981;53.532;49.398;2023-08-24T09:33:49;16.19;74.92
69715;HTU21D;56981;53.532;49.398;2023-08-24T09:36:16;16.15;74.71
69715;HTU21D;56981;53.532;49.398;2023-08-24T09:38:46;16.19;74.69
69715;HTU21D;56981;53.532;49.398;2023-08-24T09:41:17;16.12;72.93
69715;HTU21D;56981;53.532;49.398;2023-08-24T09:43:43;15.97;74.06
69715;HTU21D;56981;53.532;49.398;2023-08-24T09:46:09;15.88;73.06
69715;HTU21D;56981;53.532;49.398;2023-08-24T09:48:35;15.86;73.60
69715;HTU21D;56981;53.532;49.398;2023-08-24T09:51:04;15.92;71.56
69715;HTU21D;56981;53.532;49.398;2023-08-24T09:53:33;15.85;72.81
69715;HTU21D;56981;53.532;49.398;2023-08-24T09:56:04;15.81;73.15
69715;HTU21D;56981;53.532;49.398;2023-08-24T09:58:32;15.80;72.92
69715;HTU21D;56981;53.532;49.398;2023-08-24T10:01:00;15.73;73.38
69715;HTU21D;56981;53.532;49.398;2023-08-24T10:03:27;15.62;73.69
69715;HTU21D;56981;53.532;49.398;2023-08-24T10:05:55;15.62;74.85
69715;HTU21D;56981;53.532;49.398;2023-08-24T10:08:29;15.66;75.05
69715;HTU21D;56981;53.532;49.398;2023-08-24T10:10:56;15.57;76.53
69715;HTU21D;56981;53.532;49.398;2023-08-24T10:13:48;15.52;77.17
69715;HTU21D;56981;53.532;49.398;2023-08-24T10:16:16;15.48;78.18
69715;HTU21D;56981;53.532;49.398;2023-08-24T10:18:44;15.48;77.84
69715;HTU21D;56981;53.532;49.398;2023-08-24T10:21:10;15.45;77.82
69715;HTU21D;56981;53.532;49.398;2023-08-24T10:23:37;15.55;80.28
69715;HTU21D;56981;53.532;49.398;2023-08-24T10:26:06;15.63;80.81
69715;HTU21D;56981;53.532;49.398;2023-08-24T10:28:33;15.67;78.96
69715;HTU21D;56981;53.532;49.398;2023-08-24T10:30:59;15.70;77.34
69715;HTU21D;56981;53.532;49.398;2023-08-24T10:33:26;15.62;77.55
69715;HTU21D;56981;53.532;49.398;2023-08-24T10:35:53;15.52;78.30
69715;HTU21D;56981;53.532;49.398;2023-08-24T10:38:29;15.48;78.21
69715;HTU21D;56981;53.532;49.398;2023-08-24T10:41:03;15.49;77.10
69715;HTU21D;56981;53.532;49.398;2023-08-24T10:43:30;15.55;77.38
69715;HTU21D;56981;53.532;49.398;2023-08-24T10:46:02;15.57;77.86
69715;HTU21D;56981;53.532;49.398;2023-08-24T10:48:32;15.60;77.21
69715;HTU21D;56981;53.532;49.398;2023-08-24T10:51:22;15.55;79.40
69715;HTU21D;56981;53.532;49.398;2023-08-24T10:53:56;15.51;80.91
69715;HTU21D;56981;53.532;49.398;2023-08-24T10:56:38;15.54;80.43
69715;HTU21D;56981;53.532;49.398;2023-08-24T10:59:17;15.54;80.25
69715;HTU21D;56981;53.532;49.398;2023-08-24T11:01:55;15.58;80.14
69715;HTU21D;56981;53.532;49.398;2023-08-24T11:04:21;15.61;81.17
69715;HTU21D;56981;53.532;49.398;2023-08-24T11:06:54;15.54;80.94
69715;HTU21D;56981;53.532;49.398;2023-08-24T11:09:23;15.48;77.66
69715;HTU21D;56981;53.532;49.398;2023-08-24T11:12:00;15.39;80.49
69715;HTU21D;56981;53.532;49.398;2023-08-24T11:14:26;15.26;80.18
69715;HTU21D;56981;53.532;49.398;2023-08-24T11:16:53;15.25;80.40
69715;HTU21D;56981;53.532;49.398;2023-08-24T11:19:20;15.31;80.11
69715;HTU21D;56981;53.532;49.398;2023-08-24T11:21:46;15.25;78.66
69715;HTU21D;56981;53.532;49.398;2023-08-24T11:24:13;15.33;79.98
69715;HTU21D;56981;53.532;49.398;2023-08-24T11:26:42;15.29;78.40
69715;HTU21D;56981;53.532;49.398;2023-08-24T11:29:10;15.30;79.49
69715;HTU21D;56981;53.532;49.398;2023-08-24T11:31:37;15.32;79.30
69715;HTU21D;56981;53.532;49.398;2023-08-24T11:34:06;15.33;78.30
69715;HTU21D;56981;53.532;49.398;2023-08-24T11:36:49;15.16;76.47
69715;HTU21D;56981;53.532;49.398;2023-08-24T11:39:19;15.03;77.28
69715;HTU21D;56981;53.532;49.398;2023-08-24T11:42:06;15.06;78.56
69715;HTU21D;56981;53.532;49.398;2023-08-24T11:44:49;15.08;77.36
69715;HTU21D;56981;53.532;49.398;2023-08-24T11:47:20;15.14;76.17
69715;HTU21D;56981;53.532;49.398;2023-08-24T11:49:46;15.26;76.79
69715;HTU21D;56981;53.532;49.398;2023-08-24T11:52:12;15.38;76.60
69715;HTU21D;56981;53.532;49.398;2023-08-24T11:54:41;15.60;76.19
69715;HTU21D;56981;53.532;49.398;2023-08-24T11:57:08;15.65;74.43
69715;HTU21D;56981;53.532;49.398;2023-08-24T11:59:38;15.73;75.68
69715;HTU21D;56981;53.532;49.398;2023-08-24T12:02:05;15.89;76.14
69715;HTU21D;56981;53.532;49.398;2023-08-24T12:04:41;15.97;75.31
69715;HTU21D;56981;53.532;49.398;2023-08-24T12:07:17;16.10;74.82
69715;HTU21D;56981;53.532;49.398;2023-08-24T12:09:46;16.20;74.91
69715;HTU21D;56981;53.532;49.398;2023-08-24T12:12:16;16.17;73.70
69715;HTU21D;56981;53.532;49.398;2023-08-24T12:14:44;16.28;74.83
69715;HTU21D;56981;53.532;49.398;2023-08-24T12:17:11;16.43;72.84
69715;HTU21D;56981;53.532;49.398;2023-08-24T12:19:40;16.45;72.23
69715;HTU21D;56981;53.532;49.398;2023-08-24T12:22:08;16.48;72.84
69715;HTU21D;56981;53.532;49.398;2023-08-24T12:24:34;16.48;71.22
69715;HTU21D;56981;53.532;49.398;2023-08-24T12:27:01;16.48;72.78
69715;HTU21D;56981;53.532;49.398;2023-08-24T12:29:29;16.42;72.54
69715;HTU21D;56981;53.532;49.398;2023-08-24T12:31:58;16.58;73.23
69715;HTU21D;56981;53.532;49.398;2023-08-24T12:34:24;16.58;72.80
69715;HTU21D;56981;53.532;49.398;2023-08-24T12:36:50;16.65;72.96
69715;HTU21D;56981;53.532;49.398;2023-08-24T12:39:16;16.71;72.08
69715;HTU21D;56981;53.532;49.398;2023-08-24T12:41:42;16.76;72.48
69715;HTU21D;56981;53.532;49.398;2023-08-24T12:44:08;16.90;72.67
69715;HTU21D;56981;53.532;49.398;2023-08-24T12:46:34;17.00;71.61
69715;HTU21D;56981;53.532;49.398;2023-08-24T12:49:03;17.01;71.93
69715;HTU21D;56981;53.532;49.398;2023-08-24T12:51:30;17.13;72.74
69715;HTU21D;56981;53.532;49.398;2023-08-24T12:53:56;17.25;71.46
69715;HTU21D;56981;53.532;49.398;2023-08-24T12:56:22;17.29;71.51
69715;HTU21D;56981;53.532;49.398;2023-08-24T12:58:48;17.29;71.26
69715;HTU21D;56981;53.532;49.398;2023-08-24T13:01:14;17.35;71.32
69715;HTU21D;56981;53.532;49.398;2023-08-24T13:03:40;17.28;70.85
69715;HTU21D;56981;53.532;49.398;2023-08-24T13:06:06;17.17;70.45
69715;HTU21D;56981;53.532;49.398;2023-08-24T13:08:32;17.07;71.54
69715;HTU21D;56981;53.532;49.398;2023-08-24T13:10:58;16.95;71.02
69715;HTU21D;56981;53.532;49.398;2023-08-24T13:13:24;16.87;71.90
69715;HTU21D;56981;53.532;49.398;2023-08-24T13:15:51;16.82;73.00
69715;HTU21D;56981;53.532;49.398;2023-08-24T13:18:17;16.73;73.26
69715;HTU21D;56981;53.532;49.398;2023-08-24T13:20:44;16.76;73.67
69715;HTU21D;56981;53.532;49.398;2023-08-24T13:23:10;16.78;72.54
69715;HTU21D;56981;53.532;49.398;2023-08-24T13:25:36;16.86;72.33
69715;HTU21D;56981;53.532;49.398;2023-08-24T13:28:02;16.86;71.99
69715;HTU21D;56981;53.532;49.398;2023-08-24T13:30:28;16.88;70.11
69715;HTU21D;56981;53.532;49.398;2023-08-24T13:32:54;16.99;70.68
69715;HTU21D;56981;53.532;49.398;2023-08-24T13:35:20;17.07;69.94
69715;HTU21D;56981;53.532;49.398;2023-08-24T13:37:47;17.13;69.10
69715;HTU21D;56981;53.532;49.398;2023-08-24T13:40:13;17.18;67.99
69715;HTU21D;56981;53.532;49.398;2023-08-24T13:42:39;17.17;68.75
69715;HTU21D;56981;53.532;49.398;2023-08-24T13:45:05;17.16;69.22
69715;HTU21D;56981;53.532;49.398;2023-08-24T13:47:32;17.15;69.28
69715;HTU21D;56981;53.532;49.398;2023-08-24T13:49:57;17.03;70.28
69715;HTU21D;56981;53.532;49.398;2023-08-24T13:52:29;16.95;70.71
69715;HTU21D;56981;53.532;49.398;2023-08-24T13:54:55;16.86;71.17
69715;HTU21D;56981;53.532;49.398;2023-08-24T13:57:22;16.78;70.84
69715;HTU21D;56981;53.532;49.398;2023-08-24T13:59:49;16.69;71.66
69715;HTU21D;56981;53.532;49.398;2023-08-24T14:02:18;16.74;71.04
69715;HTU21D;56981;53.532;49.398;2023-08-24T14:04:44;16.65;69.99
69715;HTU21D;56981;53.532;49.398;2023-08-24T14:07:14;16.60;70.10
69715;HTU21D;56981;53.532;49.398;2023-08-24T14:09:42;16.50;70.07
69715;HTU21D;56981;53.532;49.398;2023-08-24T14:12:08;16.49;70.90
69715;HTU21D;56981;53.532;49.398;2023-08-24T14:14:34;16.50;71.38
69715;HTU21D;56981;53.532;49.398;2023-08-24T14:17:00;16.50;71.93
69715;HTU21D;56981;53.532;49.398;2023-08-24T14:19:26;16.47;71.35
69715;HTU21D;56981;53.532;49.398;2023-08-24T14:21:52;16.37;72.12
69715;HTU21D;56981;53.532;49.398;2023-08-24T14:24:19;16.36;72.67
69715;HTU21D;56981;53.532;49.398;2023-08-24T14:26:45;16.29;73.58
69715;HTU21D;56981;53.532;49.398;2023-08-24T14:29:12;16.24;72.37
69715;HTU21D;56981;53.532;49.398;2023-08-24T14:31:38;16.06;72.52
69715;HTU21D;56981;53.532;49.398;2023-08-24T14:34:04;15.97;73.06
69715;HTU21D;56981;53.532;49.398;2023-08-24T14:36:30;15.95;73.66
69715;HTU21D;56981;53.532;49.398;2023-08-24T14:38:58;15.92;73.40
69715;HTU21D;56981;53.532;49.398;2023-08-24T14:41:24;15.86;73.79
69715;HTU21D;56981;53.532;49.398;2023-08-24T14:43:50;15.85;74.02
69715;HTU21D;56981;53.532;49.398;2023-08-24T14:46:16;15.88;73.58
69715;HTU21D;56981;53.532;49.398;2023-08-24T14:48:42;15.84;73.79
69715;HTU21D;56981;53.532;49.398;2023-08-24T14:51:08;15.82;73.94
69715;HTU21D;56981;53.532;49.398;2023-08-24T14:53:34;15.76;73.93
69715;HTU21D;56981;53.532;49.398;2023-08-24T14:56:00;15.71;73.39
69715;HTU21D;56981;53.532;49.398;2023-08-24T14:58:27;15.71;73.90
69715;HTU21D;56981;53.532;49.398;2023-08-24T15:00:54;15.77;73.86
69715;HTU21D;56981;53.532;49.398;2023-08-24T15:03:21;15.80;75.38
69715;HTU21D;56981;53.532;49.398;2023-08-24T15:06:04;15.69;75.57
69715;HTU21D;56981;53.532;49.398;2023-08-24T15:08:31;15.73;75.41